createdAt,value
2018-05-01T00:02:05.693Z,3.40
2018-05-01T00:04:33.228Z,3.60
2018-05-01T00:07:00.722Z,2.97
2018-05-01T00:09:28.398Z,2.92
2018-05-01T00:11:56.799Z,2.20
2018-05-01T00:14:24.308Z,2.87
2018-05-01T00:16:51.796Z,3.22
2018-05-01T00:19:20.044Z,3.00
2018-05-01T00:21:47.538Z,2.42
2018-05-01T00:24:15.788Z,1.80
2018-05-01T00:26:44.105Z,2.50
2018-05-01T00:29:11.621Z,2.45
2018-05-01T00:31:39.135Z,3.00
2018-05-01T00:34:06.628Z,2.42
2018-05-01T00:36:34.221Z,1.25
2018-05-01T00:39:02.525Z,1.25
2018-05-01T00:41:30.021Z,2.25
2018-05-01T00:43:57.517Z,1.27
2018-05-01T00:46:25.889Z,1.92
2018-05-01T00:48:54.154Z,0.77
2018-05-01T00:51:21.648Z,1.87
2018-05-01T00:53:49.141Z,1.50
2018-05-01T00:56:16.639Z,0.80
2018-05-01T00:58:45.009Z,1.60
2018-05-01T01:01:12.549Z,2.30
2018-05-01T01:03:40.091Z,1.25
2018-05-01T01:06:07.561Z,1.23
2018-05-01T01:08:35.047Z,1.05
2018-05-01T01:11:03.305Z,1.50
2018-05-01T01:13:30.890Z,2.60
2018-05-01T01:15:59.182Z,2.55
2018-05-01T01:18:26.757Z,1.58
2018-05-01T01:20:54.281Z,1.40
2018-05-01T01:23:22.561Z,6.93
2018-05-01T01:25:50.960Z,3.92
2018-05-01T01:28:18.497Z,3.12
2018-05-01T01:30:46.748Z,1.60
2018-05-01T01:33:14.341Z,3.87
2018-05-01T01:35:42.095Z,4.85
2018-05-01T01:38:09.864Z,7.40
2018-05-01T01:40:37.636Z,3.70
2018-05-01T01:43:04.625Z,2.05
2018-05-01T01:45:31.604Z,2.30
2018-05-01T01:47:58.596Z,1.45
2018-05-01T01:50:25.604Z,2.25
2018-05-01T01:52:53.370Z,1.62
2018-05-01T01:55:21.208Z,1.35
2018-05-01T01:57:48.195Z,2.45
2018-05-01T02:00:15.240Z,2.08
2018-05-01T02:02:43.119Z,1.62
2018-05-01T02:05:10.102Z,3.40
2018-05-01T02:07:37.088Z,1.40
2018-05-01T02:10:04.856Z,1.87
2018-05-01T02:12:32.642Z,4.25
2018-05-01T02:14:59.621Z,1.05
2018-05-01T02:17:26.608Z,1.83
2018-05-01T02:19:54.366Z,2.25
2018-05-01T02:22:21.426Z,1.77
2018-05-01T02:24:49.187Z,3.22
2018-05-01T02:27:16.964Z,1.15
2018-05-01T02:29:43.974Z,3.15
2018-05-01T02:32:10.975Z,1.30
2018-05-01T02:34:37.988Z,0.88
2018-05-01T02:37:05.766Z,0.90
2018-05-01T02:39:33.625Z,0.82
2018-05-01T02:42:01.365Z,0.60
2018-05-01T02:44:28.544Z,0.70
2018-05-01T02:46:56.297Z,0.90
2018-05-01T02:49:23.453Z,0.60
2018-05-01T02:51:51.200Z,0.60
2018-05-01T02:54:18.169Z,0.70
2018-05-01T02:56:45.924Z,0.60
2018-05-01T02:59:13.692Z,0.70
2018-05-01T03:01:41.485Z,1.25
2018-05-01T03:04:08.464Z,1.20
2018-05-01T03:06:35.633Z,0.90
2018-05-01T03:09:03.319Z,0.70
2018-05-01T03:11:31.063Z,0.60
2018-05-01T03:13:58.117Z,0.60
2018-05-01T03:16:25.983Z,0.93
2018-05-01T03:18:52.947Z,0.57
2018-05-01T03:21:20.713Z,0.70
2018-05-01T03:23:47.741Z,1.30
2018-05-01T03:26:14.897Z,0.73
2018-05-01T03:28:42.633Z,0.80
2018-05-01T03:31:09.617Z,0.75
2018-05-01T03:33:37.380Z,1.02
2018-05-01T03:36:05.213Z,1.83
2018-05-01T03:38:32.218Z,1.23
2018-05-01T03:40:59.191Z,3.47
2018-05-01T03:43:26.184Z,0.85
2018-05-01T03:45:53.954Z,1.60
2018-05-01T03:48:21.705Z,2.20
2018-05-01T03:50:49.481Z,1.75
2018-05-01T03:53:17.345Z,1.50
2018-05-01T03:55:45.181Z,3.25
2018-05-01T03:58:12.181Z,1.85
2018-05-01T04:00:39.199Z,2.67
2018-05-01T04:03:07.263Z,2.03
2018-05-01T04:05:35.010Z,2.25
2018-05-01T04:08:02.074Z,3.55
2018-05-01T04:10:29.945Z,8.35
2018-05-01T04:12:57.706Z,2.42
2018-05-01T04:15:25.793Z,4.07
2018-05-01T04:17:53.574Z,3.75
2018-05-01T04:20:20.548Z,3.97
2018-05-01T04:22:47.548Z,3.12
2018-05-01T04:25:15.443Z,4.85
2018-05-01T04:27:42.752Z,5.72
2018-05-01T04:30:09.852Z,5.07
2018-05-01T04:32:36.846Z,4.55
2018-05-01T04:35:04.670Z,3.37
2018-05-01T04:37:31.628Z,6.20
2018-05-01T04:39:58.626Z,5.82
2018-05-01T04:42:25.615Z,5.15
2018-05-01T04:44:52.596Z,4.50
2018-05-01T04:47:20.476Z,4.80
2018-05-01T04:49:48.224Z,5.68
2018-05-01T04:52:16.020Z,5.20
2018-05-01T04:54:43.004Z,4.28
2018-05-01T04:57:10.088Z,5.22
2018-05-01T04:59:37.847Z,6.30
2018-05-01T05:02:04.904Z,6.45
2018-05-01T05:04:32.788Z,4.97
2018-05-01T05:06:59.764Z,6.43
2018-05-01T05:09:26.883Z,4.62
2018-05-01T05:11:53.837Z,6.22
2018-05-01T05:14:20.816Z,5.55
2018-05-01T05:16:48.100Z,4.32
2018-05-01T05:19:15.868Z,8.43
2018-05-01T05:21:42.848Z,5.82
2018-05-01T05:24:09.857Z,6.07
2018-05-01T05:26:37.610Z,11.25
2018-05-01T05:29:04.830Z,10.00
2018-05-01T05:31:31.862Z,12.10
2018-05-01T05:33:58.854Z,7.65
2018-05-01T05:36:25.867Z,5.40
2018-05-01T05:38:52.863Z,7.87
2018-05-01T05:41:20.648Z,5.53
2018-05-01T05:43:48.378Z,4.80
2018-05-01T05:46:15.360Z,8.45
2018-05-01T05:48:42.376Z,7.40
2018-05-01T05:51:09.365Z,7.97
2018-05-01T05:53:36.367Z,8.73
2018-05-01T05:56:03.351Z,8.20
2018-05-01T05:58:30.372Z,12.13
2018-05-01T06:00:58.148Z,7.82
2018-05-01T06:03:25.996Z,10.90
2018-05-01T06:05:53.867Z,11.98
2018-05-01T06:08:21.628Z,7.22
2018-05-01T06:10:49.391Z,12.75
2018-05-01T06:13:17.264Z,6.90
2018-05-01T06:15:45.662Z,8.10
2018-05-01T06:18:12.683Z,8.27
2018-05-01T06:20:39.700Z,6.50
2018-05-01T06:23:06.700Z,10.55
2018-05-01T06:25:33.714Z,7.45
2018-05-01T06:28:00.688Z,8.25
2018-05-01T06:30:27.708Z,6.37
2018-05-01T06:32:54.732Z,10.70
2018-05-01T06:35:21.729Z,9.57
2018-05-01T06:37:49.491Z,9.48
2018-05-01T06:40:16.474Z,9.88
2018-05-01T06:42:43.566Z,6.87
2018-05-01T06:45:10.543Z,8.52
2018-05-01T06:47:37.528Z,10.80
2018-05-01T06:50:04.667Z,6.07
2018-05-01T06:52:31.664Z,10.38
2018-05-01T06:54:59.733Z,6.22
2018-05-01T06:57:27.507Z,5.20
2018-05-01T06:59:55.372Z,8.27
2018-05-01T07:02:23.960Z,9.23
2018-05-01T07:04:50.963Z,7.95
2018-05-01T07:07:17.968Z,4.70
2018-05-01T07:09:44.961Z,7.78
2018-05-01T07:12:11.962Z,5.60
2018-05-01T07:14:39.020Z,8.52
2018-05-01T07:17:06.404Z,6.33
2018-05-01T07:19:33.756Z,8.30
2018-05-01T07:22:00.803Z,6.10
2018-05-01T07:24:27.799Z,8.37
2018-05-01T07:26:54.797Z,8.70
2018-05-01T07:29:21.788Z,5.47
2018-05-01T07:31:48.809Z,8.40
2018-05-01T07:34:15.865Z,5.30
2018-05-01T07:36:43.741Z,7.43
2018-05-01T07:39:11.539Z,7.00
2018-05-01T07:41:38.570Z,5.03
2018-05-01T07:44:06.309Z,5.90
2018-05-01T07:46:34.080Z,4.80
2018-05-01T07:49:01.921Z,5.43
2018-05-01T07:51:28.863Z,8.53
2018-05-01T07:53:55.840Z,7.53
2018-05-01T07:56:22.864Z,9.60
2018-05-01T07:58:50.617Z,8.50
2018-05-01T08:01:17.685Z,6.50
2018-05-01T08:03:45.521Z,12.47
2018-05-01T08:06:12.844Z,8.50
2018-05-01T08:08:40.550Z,8.73
2018-05-01T08:11:07.585Z,9.73
2018-05-01T08:13:34.607Z,11.50
2018-05-01T08:16:01.595Z,11.60
2018-05-01T08:18:29.585Z,8.50
2018-05-01T08:20:57.337Z,8.10
2018-05-01T08:23:25.117Z,9.47
2018-05-01T08:25:52.124Z,12.10
2018-05-01T08:28:19.152Z,9.20
2018-05-01T08:30:46.469Z,13.13
2018-05-01T08:33:13.510Z,9.87
2018-05-01T08:35:41.665Z,7.80
2018-05-01T08:38:08.716Z,8.90
2018-05-01T08:40:35.684Z,10.50
2018-05-01T08:43:02.697Z,10.00
2018-05-01T08:45:29.747Z,11.70
2018-05-01T08:47:57.525Z,11.57
2018-05-01T08:50:24.550Z,9.47
2018-05-01T08:52:52.405Z,9.77
2018-05-01T08:55:19.445Z,7.50
2018-05-01T08:57:46.567Z,11.43
2018-05-01T09:00:13.575Z,11.60
2018-05-01T09:02:41.350Z,7.17
2018-05-01T09:05:08.572Z,7.73
2018-05-01T09:07:45.810Z,8.10
2018-05-01T09:10:13.652Z,6.63
2018-05-01T09:12:40.693Z,13.90
2018-05-01T09:15:08.464Z,12.43
2018-05-01T09:17:35.534Z,10.20
2018-05-01T09:20:02.471Z,6.97
2018-05-01T09:22:29.527Z,8.00
2018-05-01T09:24:56.584Z,10.20
2018-05-01T09:27:23.847Z,8.90
2018-05-01T09:29:50.906Z,18.77
2018-05-01T09:32:18.086Z,11.27
2018-05-01T09:34:45.352Z,8.67
2018-05-01T09:37:13.244Z,11.93
2018-05-01T09:39:40.256Z,9.30
2018-05-01T09:44:42.052Z,11.23
2018-05-01T09:47:09.078Z,10.67
2018-05-01T09:49:36.928Z,8.50
2018-05-01T09:52:03.932Z,9.20
2018-05-01T09:54:31.500Z,11.00
2018-05-01T09:56:59.048Z,12.60
2018-05-01T09:59:27.394Z,10.90
2018-05-01T10:01:54.913Z,11.43
2018-05-01T10:04:22.423Z,7.60
2018-05-01T10:06:50.006Z,10.70
2018-05-01T10:09:17.840Z,9.10
2018-05-01T10:11:45.372Z,11.80
2018-05-01T10:14:13.883Z,7.70
2018-05-01T10:16:41.433Z,8.20
2018-05-01T10:19:09.803Z,11.43
2018-05-01T10:21:38.139Z,9.53
2018-05-01T10:24:05.636Z,6.97
2018-05-01T10:26:33.901Z,10.67
2018-05-01T10:29:01.402Z,9.40
2018-05-01T10:31:28.911Z,10.90
2018-05-01T10:33:56.624Z,11.77
2018-05-01T10:36:24.143Z,8.70
2018-05-01T10:38:52.466Z,10.23
2018-05-01T10:41:24.220Z,14.53
2018-05-01T10:43:52.461Z,9.87
2018-05-01T10:46:20.109Z,10.33
2018-05-01T10:48:48.731Z,12.87
2018-05-01T10:51:16.235Z,11.60
2018-05-01T10:53:43.854Z,14.57
2018-05-01T10:56:11.476Z,14.60
2018-05-01T10:58:39.781Z,8.23
2018-05-01T11:01:07.285Z,9.13
2018-05-01T11:03:35.101Z,8.63
2018-05-01T11:06:02.635Z,10.47
2018-05-01T11:08:30.937Z,9.03
2018-05-01T11:10:58.461Z,8.90
2018-05-01T11:13:26.731Z,12.77
2018-05-01T11:15:54.297Z,11.53
2018-05-01T11:18:21.911Z,13.37
2018-05-01T11:20:49.493Z,12.20
2018-05-01T11:23:17.102Z,7.10
2018-05-01T11:25:45.789Z,13.07
2018-05-01T11:28:13.328Z,12.27
2018-05-01T11:30:41.619Z,12.70
2018-05-01T11:33:09.151Z,11.20
2018-05-01T11:35:38.394Z,10.07
2018-05-01T11:38:05.937Z,8.63
2018-05-01T11:40:34.189Z,8.97
2018-05-01T11:43:02.474Z,10.00
2018-05-01T11:45:31.177Z,9.30
2018-05-01T11:47:59.451Z,8.57
2018-05-01T11:50:26.945Z,8.70
2018-05-01T11:52:54.823Z,9.93
2018-05-01T11:55:22.325Z,8.40
2018-05-01T11:57:50.579Z,8.50
2018-05-01T12:00:18.121Z,8.87
2018-05-01T12:02:45.725Z,9.50
2018-05-01T12:05:13.688Z,7.57
2018-05-01T12:07:42.672Z,10.67
2018-05-01T12:10:10.994Z,9.80
2018-05-01T12:12:38.516Z,10.80
2018-05-01T12:15:06.796Z,9.17
2018-05-01T12:17:34.294Z,10.20
2018-05-01T12:20:02.246Z,11.90
2018-05-01T12:22:29.748Z,13.10
2018-05-01T12:24:57.310Z,10.37
2018-05-01T12:27:24.893Z,9.40
2018-05-01T12:29:53.218Z,9.43
2018-05-01T12:32:20.668Z,8.67
2018-05-01T12:34:48.293Z,11.80
2018-05-01T12:37:16.567Z,9.93
2018-05-01T12:39:44.941Z,8.63
2018-05-01T12:42:13.387Z,8.83
2018-05-01T12:44:41.567Z,10.57
2018-05-01T12:47:09.188Z,9.90
2018-05-01T12:49:36.693Z,9.13
2018-05-01T12:52:04.199Z,9.30
2018-05-01T12:54:31.718Z,12.03
2018-05-01T12:56:59.201Z,7.80
2018-05-01T12:59:26.754Z,13.10
2018-05-01T13:01:54.259Z,9.00
2018-05-01T13:04:22.058Z,8.70
2018-05-01T13:06:50.349Z,7.67
2018-05-01T13:09:18.699Z,8.50
2018-05-01T13:11:46.288Z,8.67
2018-05-01T13:14:15.616Z,11.80
2018-05-01T13:16:43.141Z,11.20
2018-05-01T13:19:11.716Z,7.70
2018-05-01T13:21:40.026Z,7.93
2018-05-01T13:24:07.544Z,8.40
2018-05-01T13:26:36.670Z,9.43
2018-05-01T13:29:04.173Z,9.83
2018-05-01T13:31:31.675Z,9.57
2018-05-01T13:33:59.244Z,8.97
2018-05-01T13:36:27.495Z,8.30
2018-05-01T13:38:55.891Z,8.20
2018-05-01T13:41:23.533Z,11.23
2018-05-01T13:43:51.023Z,8.47
2018-05-01T13:46:18.512Z,8.80
2018-05-01T13:48:46.042Z,8.00
2018-05-01T13:51:13.530Z,9.63
2018-05-01T13:53:41.143Z,7.63
2018-05-01T13:56:08.645Z,8.20
2018-05-01T13:58:36.153Z,9.33
2018-05-01T14:01:04.484Z,8.70
2018-05-01T14:03:32.095Z,11.20
2018-05-01T14:06:00.370Z,9.43
2018-05-01T14:08:28.664Z,12.20
2018-05-01T14:10:56.166Z,6.83
2018-05-01T14:13:23.742Z,7.87
2018-05-01T14:15:51.290Z,7.73
2018-05-01T14:18:18.882Z,9.73
2018-05-01T14:20:47.266Z,6.43
2018-05-01T14:23:15.636Z,6.30
2018-05-01T14:25:44.634Z,9.07
2018-05-01T14:28:11.968Z,7.03
2018-05-01T14:30:39.562Z,8.33
2018-05-01T14:33:07.926Z,7.10
2018-05-01T14:35:36.315Z,8.27
2018-05-01T14:38:04.273Z,7.87
2018-05-01T14:40:32.564Z,8.33
2018-05-01T14:43:00.065Z,7.00
2018-05-01T14:45:27.568Z,8.70
2018-05-01T14:47:55.834Z,6.23
2018-05-01T14:50:24.113Z,8.23
2018-05-01T14:52:52.385Z,8.37
2018-05-01T14:55:20.655Z,7.23
2018-05-01T14:57:48.132Z,8.30
2018-05-01T15:00:16.513Z,5.90
2018-05-01T15:02:56.195Z,7.10
2018-05-01T15:05:23.792Z,8.43
2018-05-01T15:07:52.253Z,8.73
2018-05-01T15:10:19.765Z,5.37
2018-05-01T15:12:47.277Z,9.57
2018-05-01T15:15:14.773Z,7.40
2018-05-01T15:17:42.293Z,5.33
2018-05-01T15:20:09.825Z,5.50
2018-05-01T15:22:37.349Z,5.20
2018-05-01T15:25:05.615Z,8.90
2018-05-01T15:27:33.154Z,4.60
2018-05-01T15:30:00.719Z,5.43
2018-05-01T15:32:28.239Z,5.93
2018-05-01T15:34:55.779Z,5.73
2018-05-01T15:37:23.265Z,6.27
2018-05-01T15:39:50.833Z,4.67
2018-05-01T15:42:19.139Z,6.47
2018-05-01T15:44:48.185Z,4.70
2018-05-01T15:47:15.723Z,4.33
2018-05-01T15:49:43.327Z,5.57
2018-05-01T15:52:10.819Z,3.97
2018-05-01T15:54:38.607Z,5.20
2018-05-01T15:57:06.133Z,3.80
2018-05-01T15:59:34.513Z,5.37
2018-05-01T16:02:02.823Z,6.63
2018-05-01T16:04:30.308Z,9.07
2018-05-01T16:06:57.842Z,4.50
2018-05-01T16:09:25.376Z,5.77
2018-05-01T16:11:52.872Z,4.87
2018-05-01T16:14:20.487Z,4.23
2018-05-01T16:16:48.810Z,6.90
2018-05-01T16:19:17.376Z,6.83
2018-05-01T16:21:44.889Z,3.27
2018-05-01T16:24:13.341Z,5.13
2018-05-01T16:26:40.862Z,3.73
2018-05-01T16:29:09.902Z,5.23
2018-05-01T16:31:37.489Z,4.00
2018-05-01T16:34:05.780Z,3.40
2018-05-01T16:36:34.067Z,5.10
2018-05-01T16:39:01.590Z,3.90
2018-05-01T16:41:29.255Z,3.80
2018-05-01T16:43:56.783Z,4.53
2018-05-01T16:46:24.285Z,3.63
2018-05-01T16:48:52.565Z,5.80
2018-05-01T16:51:20.125Z,3.10
2018-05-01T16:53:48.379Z,4.97
2018-05-01T16:56:16.699Z,4.77
2018-05-01T16:58:44.183Z,8.27
2018-05-01T17:01:11.707Z,6.50
2018-05-01T17:03:39.873Z,4.67
2018-05-01T17:06:08.145Z,4.50
2018-05-01T17:08:35.856Z,5.73
2018-05-01T17:11:03.320Z,4.77
2018-05-01T17:13:30.804Z,6.13
2018-05-01T17:15:59.089Z,6.17
2018-05-01T17:18:27.435Z,10.10
2018-05-01T17:20:55.265Z,6.03
2018-05-01T17:23:22.807Z,4.90
2018-05-01T17:25:50.351Z,4.30
2018-05-01T17:28:18.615Z,12.00
2018-05-01T17:30:46.141Z,3.97
2018-05-01T17:33:14.059Z,6.60
2018-05-01T17:35:42.461Z,8.60
2018-05-01T17:38:10.005Z,7.90
2018-05-01T17:40:37.506Z,9.00
2018-05-01T17:43:05.074Z,5.17
2018-05-01T17:45:32.635Z,31.20
2018-05-01T17:48:00.132Z,14.90
2018-05-01T17:50:27.678Z,4.93
2018-05-01T17:52:56.277Z,29.03
2018-05-01T17:55:23.775Z,11.43
2018-05-01T17:57:51.289Z,7.53
2018-05-01T18:00:19.552Z,4.80
2018-05-01T18:02:47.840Z,6.80
2018-05-01T18:05:16.100Z,30.27
2018-05-01T18:07:44.478Z,7.80
2018-05-01T18:10:12.770Z,16.77
2018-05-01T18:12:41.382Z,17.00
2018-05-01T18:15:08.876Z,12.10
2018-05-01T18:17:36.480Z,23.17
2018-05-01T18:20:03.979Z,14.83
2018-05-01T18:22:31.598Z,7.63
2018-05-01T18:24:59.931Z,14.13
2018-05-01T18:27:27.492Z,10.43
2018-05-01T18:29:55.732Z,11.43
2018-05-01T18:32:23.247Z,11.37
2018-05-01T18:34:51.626Z,19.20
2018-05-01T18:37:19.975Z,5.13
2018-05-01T18:39:47.460Z,10.07
2018-05-01T18:42:15.857Z,7.50
2018-05-01T18:44:44.110Z,7.33
2018-05-01T18:47:11.663Z,5.90
2018-05-01T18:49:39.233Z,5.40
2018-05-01T18:52:07.504Z,4.97
2018-05-01T18:54:35.014Z,7.67
2018-05-01T18:57:02.522Z,13.20
2018-05-01T18:59:30.820Z,9.27
2018-05-01T19:01:59.108Z,13.43
2018-05-01T19:04:26.698Z,9.50
2018-05-01T19:06:54.592Z,11.10
2018-05-01T19:09:22.172Z,8.00
2018-05-01T19:11:50.522Z,8.00
2018-05-01T19:14:18.723Z,6.70
2018-05-01T19:16:46.996Z,6.03
2018-05-01T19:19:15.275Z,5.87
2018-05-01T19:21:43.548Z,6.62
2018-05-01T19:24:11.828Z,8.70
2018-05-01T19:26:40.154Z,3.15
2018-05-01T19:29:07.688Z,5.70
2018-05-01T19:31:35.199Z,5.72
2018-05-01T19:34:02.827Z,9.82
2018-05-01T19:36:30.332Z,5.75
2018-05-01T19:38:57.834Z,3.45
2018-05-01T19:41:25.316Z,5.68
2018-05-01T19:43:53.171Z,5.72
2018-05-01T19:46:20.662Z,9.05
2018-05-01T19:48:48.258Z,17.15
2018-05-01T19:51:15.746Z,5.78
2018-05-01T19:53:43.277Z,6.62
2018-05-01T19:56:12.011Z,4.72
2018-05-01T19:58:39.518Z,5.53
2018-05-01T20:01:07.080Z,4.70
2018-05-01T20:03:34.584Z,5.65
2018-05-01T20:06:02.179Z,5.35
2018-05-01T20:08:30.563Z,6.53
2018-05-01T20:10:58.835Z,4.70
2018-05-01T20:13:27.115Z,6.68
2018-05-01T20:15:55.366Z,6.32
2018-05-01T20:18:22.951Z,6.95
2018-05-01T20:20:51.226Z,5.47
2018-05-01T20:23:19.506Z,4.85
2018-05-01T20:25:48.299Z,7.97
2018-05-01T20:28:16.565Z,4.85
2018-05-01T20:30:45.026Z,5.45
2018-05-01T20:33:12.610Z,5.65
2018-05-01T20:35:40.875Z,4.30
2018-05-01T20:38:09.133Z,3.45
2018-05-01T20:40:36.730Z,5.78
2018-05-01T20:43:05.331Z,6.07
2018-05-01T20:45:33.571Z,4.80
2018-05-01T20:48:02.144Z,4.70
2018-05-01T20:50:30.588Z,7.05
2018-05-01T20:52:58.181Z,9.35
2018-05-01T20:55:25.803Z,7.00
2018-05-01T20:57:53.305Z,7.15
2018-05-01T21:00:20.807Z,5.85
2018-05-01T21:02:48.289Z,7.18
2018-05-01T21:05:15.792Z,5.40
2018-05-01T21:07:44.052Z,9.93
2018-05-01T21:10:11.547Z,10.48
2018-05-01T21:12:39.072Z,7.30
2018-05-01T21:15:06.558Z,10.55
2018-05-01T21:17:34.096Z,5.18
2018-05-01T21:20:02.348Z,5.20
2018-05-01T21:22:29.940Z,7.07
2018-05-01T21:24:58.322Z,5.82
2018-05-01T21:27:26.588Z,7.20
2018-05-01T21:29:54.862Z,11.80
2018-05-01T21:32:23.100Z,6.43
2018-05-01T21:34:51.418Z,9.88
2018-05-01T21:37:19.695Z,9.90
2018-05-01T21:39:47.957Z,6.75
2018-05-01T21:42:15.444Z,7.45
2018-05-01T21:44:42.945Z,5.05
2018-05-01T21:47:10.449Z,11.02
2018-05-01T21:49:38.718Z,10.27
2018-05-01T21:52:06.977Z,8.68
2018-05-01T21:54:34.549Z,5.75
2018-05-01T21:57:02.879Z,8.00
2018-05-01T21:59:30.375Z,8.30
2018-05-01T22:01:57.933Z,10.85
2018-05-01T22:04:25.425Z,6.47
2018-05-01T22:06:53.666Z,7.95
2018-05-01T22:09:21.148Z,6.85
2018-05-01T22:11:49.424Z,6.53
2018-05-01T22:14:16.926Z,5.32
2018-05-01T22:16:44.426Z,6.85
2018-05-01T22:19:12.690Z,7.95
2018-05-01T22:21:40.202Z,6.10
2018-05-01T22:24:07.758Z,5.32
2018-05-01T22:26:35.286Z,7.90
2018-05-01T22:29:03.560Z,7.10
2018-05-01T22:31:31.926Z,8.27
2018-05-01T22:33:59.498Z,7.87
2018-05-01T22:36:27.744Z,8.70
2018-05-01T22:38:55.254Z,7.22
2018-05-01T22:41:22.754Z,7.05
2018-05-01T22:43:50.284Z,5.07
2018-05-01T22:46:17.787Z,10.80
2018-05-01T22:48:45.280Z,7.22
2018-05-01T22:51:12.820Z,9.90
2018-05-01T22:53:41.101Z,10.82
2018-05-01T22:56:09.359Z,7.65
2018-05-01T22:58:36.855Z,6.90
2018-05-01T23:01:04.388Z,6.40
2018-05-01T23:03:32.660Z,8.68
2018-05-01T23:06:01.030Z,7.30
2018-05-01T23:08:28.516Z,5.78
2018-05-01T23:10:56.760Z,7.57
2018-05-01T23:13:24.339Z,7.70
2018-05-01T23:15:52.586Z,9.05
2018-05-01T23:18:20.096Z,6.35
2018-05-01T23:20:47.594Z,6.18
2018-05-01T23:23:15.126Z,5.37
2018-05-01T23:25:42.600Z,7.55
2018-05-01T23:28:10.088Z,9.60
2018-05-01T23:30:38.362Z,7.60
2018-05-01T23:33:05.888Z,8.90
2018-05-01T23:35:33.408Z,5.70
2018-05-01T23:38:01.662Z,10.18
2018-05-01T23:40:29.224Z,5.68
2018-05-01T23:42:56.745Z,8.63
2018-05-01T23:45:24.246Z,10.73
2018-05-01T23:47:52.536Z,9.35
2018-05-01T23:50:20.803Z,9.48
2018-05-01T23:52:49.072Z,6.80
2018-05-01T23:55:17.513Z,7.20
2018-05-01T23:57:45.048Z,13.45
